createdAt,value
2016-05-06T00:00:30.947Z,1012.26
2016-05-06T00:01:30.949Z,1012.28
2016-05-06T00:02:30.953Z,1012.29
2016-05-06T00:03:30.956Z,1012.24
2016-05-06T00:04:30.958Z,1012.23
2016-05-06T00:05:30.944Z,1012.2
2016-05-06T00:06:30.947Z,1012.21
2016-05-06T00:07:30.949Z,1012.15
2016-05-06T00:08:30.953Z,1012.22
2016-05-06T00:09:30.955Z,1012.18
2016-05-06T00:10:30.958Z,1012.14
2016-05-06T00:11:30.960Z,1012.17
2016-05-06T00:12:30.949Z,1012.17
2016-05-06T00:13:30.951Z,1012.17
2016-05-06T00:14:30.954Z,1012.15
2016-05-06T00:15:30.956Z,1012.18
2016-05-06T00:16:30.959Z,1012.15
2016-05-06T00:17:30.961Z,1012.18
2016-05-06T00:18:30.949Z,1012.21
2016-05-06T00:19:30.951Z,1012.23
2016-05-06T00:20:30.962Z,1012.15
2016-05-06T00:21:30.966Z,1012.15
2016-05-06T00:22:30.952Z,1012.15
2016-05-06T00:23:30.955Z,1012.1
2016-05-06T00:24:30.957Z,1012.15
2016-05-06T00:25:30.960Z,1012.14
2016-05-06T00:26:30.963Z,1012.14
2016-05-06T00:27:30.951Z,1012.12
2016-05-06T00:28:30.953Z,1012.15
2016-05-06T00:29:30.956Z,1012.14
2016-05-06T00:30:30.959Z,1012.15
2016-05-06T00:31:30.961Z,1012.12
2016-05-06T00:32:30.964Z,1012.12
2016-05-06T00:33:30.951Z,1012.12
2016-05-06T00:34:30.953Z,1012.1
2016-05-06T00:35:30.957Z,1012.12
2016-05-06T00:36:30.959Z,1012.13
2016-05-06T00:37:30.961Z,1012.1
2016-05-06T00:38:30.948Z,1012.14
2016-05-06T00:39:30.951Z,1012.11
2016-05-06T00:40:30.953Z,1012.13
2016-05-06T00:41:30.956Z,1012.09
2016-05-06T00:42:30.959Z,1012.15
2016-05-06T00:43:30.962Z,1012.14
2016-05-06T00:44:30.949Z,1012.15
2016-05-06T00:45:30.952Z,1012.09
2016-05-06T00:46:30.954Z,1012.15
2016-05-06T00:47:30.957Z,1012.08
2016-05-06T00:48:30.960Z,1012.04
2016-05-06T00:49:30.947Z,1012.06
2016-05-06T00:50:30.949Z,1012.09
2016-05-06T00:51:30.952Z,1012.07
2016-05-06T00:52:30.955Z,1012.08
2016-05-06T00:53:30.958Z,1012.03
2016-05-06T00:54:30.960Z,1012.07
2016-05-06T00:55:30.947Z,1012.04
2016-05-06T00:56:30.950Z,1011.98
2016-05-06T00:57:30.952Z,1012.01
2016-05-06T00:58:30.955Z,1012
2016-05-06T00:59:30.957Z,1012.03
2016-05-06T01:00:30.961Z,1012.04
2016-05-06T01:01:30.948Z,1011.99
2016-05-06T01:02:30.951Z,1012
2016-05-06T01:03:30.953Z,1012.01
2016-05-06T01:04:30.956Z,1012
2016-05-06T01:05:30.959Z,1012.03
2016-05-06T01:06:30.962Z,1011.97
2016-05-06T01:07:30.948Z,1011.97
2016-05-06T01:08:30.951Z,1011.97
2016-05-06T01:09:30.954Z,1011.95
2016-05-06T01:10:30.956Z,1011.92
2016-05-06T01:11:30.959Z,1011.92
2016-05-06T01:12:30.946Z,1011.95
2016-05-06T01:13:30.950Z,1011.98
2016-05-06T01:14:30.952Z,1011.94
2016-05-06T01:15:30.955Z,1011.94
2016-05-06T01:16:30.957Z,1011.89
2016-05-06T01:17:30.944Z,1011.93
2016-05-06T01:18:30.947Z,1011.89
2016-05-06T01:19:30.950Z,1011.89
2016-05-06T01:20:30.952Z,1011.87
2016-05-06T01:21:30.954Z,1011.92
2016-05-06T01:22:30.958Z,1011.88
2016-05-06T01:23:30.944Z,1011.92
2016-05-06T01:24:30.947Z,1011.87
2016-05-06T01:25:30.949Z,1011.84
2016-05-06T01:26:30.953Z,1011.85
2016-05-06T01:27:30.955Z,1011.85
2016-05-06T01:28:30.943Z,1011.85
2016-05-06T01:29:30.945Z,1011.87
2016-05-06T01:30:30.948Z,1011.9
2016-05-06T01:31:30.951Z,1011.88
2016-05-06T01:32:30.953Z,1011.87
2016-05-06T01:33:30.956Z,1011.85
2016-05-06T01:34:30.942Z,1011.91
2016-05-06T01:35:30.946Z,1011.86
2016-05-06T01:36:30.948Z,1011.84
2016-05-06T01:37:30.950Z,1011.84
2016-05-06T01:38:30.953Z,1011.83
2016-05-06T01:39:30.957Z,1011.82
2016-05-06T01:40:30.959Z,1011.82
2016-05-06T01:41:30.945Z,1011.8
2016-05-06T01:42:30.949Z,1011.78
2016-05-06T01:43:30.936Z,1011.77
2016-05-06T01:44:30.939Z,1011.76
2016-05-06T01:45:30.941Z,1011.76
2016-05-06T01:46:30.944Z,1011.72
2016-05-06T01:47:30.947Z,1011.67
2016-05-06T01:48:30.950Z,1011.67
2016-05-06T01:49:30.936Z,1011.64
2016-05-06T01:50:30.938Z,1011.58
2016-05-06T01:51:30.942Z,1011.64
2016-05-06T01:52:30.945Z,1011.65
2016-05-06T01:53:30.932Z,1011.63
2016-05-06T01:54:30.934Z,1011.61
2016-05-06T01:55:30.938Z,1011.58
2016-05-06T01:56:30.940Z,1011.56
2016-05-06T01:57:30.943Z,1011.57
2016-05-06T01:58:30.929Z,1011.54
2016-05-06T01:59:30.932Z,1011.55
2016-05-06T02:00:30.935Z,1011.58
2016-05-06T02:01:30.937Z,1011.59
2016-05-06T02:02:30.940Z,1011.63
2016-05-06T02:03:30.942Z,1011.61
2016-05-06T02:04:30.930Z,1011.58
2016-05-06T02:05:30.932Z,1011.57
2016-05-06T02:06:30.935Z,1011.54
2016-05-06T02:07:30.937Z,1011.55
2016-05-06T02:08:30.940Z,1011.53
2016-05-06T02:09:30.928Z,1011.54
2016-05-06T02:10:31.992Z,1011.51
2016-05-06T02:11:30.933Z,1011.51
2016-05-06T02:12:30.936Z,1011.56
2016-05-06T02:13:30.923Z,1011.53
2016-05-06T02:14:30.925Z,1011.54
2016-05-06T02:15:30.928Z,1011.54
2016-05-06T02:16:30.931Z,1011.58
2016-05-06T02:17:30.918Z,1011.59
2016-05-06T02:18:30.920Z,1011.54
2016-05-06T02:19:30.923Z,1011.54
2016-05-06T02:20:30.926Z,1011.58
2016-05-06T02:21:30.928Z,1011.52
2016-05-06T02:22:30.931Z,1011.57
2016-05-06T02:23:30.922Z,1011.6
2016-05-06T02:24:30.925Z,1011.51
2016-05-06T02:25:30.928Z,1011.53
2016-05-06T02:26:30.931Z,1011.54
2016-05-06T02:27:30.917Z,1011.58
2016-05-06T02:28:30.920Z,1011.46
2016-05-06T02:29:30.922Z,1011.51
2016-05-06T02:30:30.910Z,1011.47
2016-05-06T02:31:30.912Z,1011.47
2016-05-06T02:32:30.914Z,1011.47
2016-05-06T02:33:30.917Z,1011.48
2016-05-06T02:34:30.920Z,1011.44
2016-05-06T02:35:30.908Z,1011.45
2016-05-06T02:36:30.910Z,1011.48
2016-05-06T02:37:30.914Z,1011.48
2016-05-06T02:38:30.916Z,1011.4
2016-05-06T02:39:30.919Z,1011.47
2016-05-06T02:40:30.905Z,1011.44
2016-05-06T02:41:30.907Z,1011.48
2016-05-06T02:42:30.910Z,1011.45
2016-05-06T02:43:30.914Z,1011.43
2016-05-06T02:44:30.916Z,1011.48
2016-05-06T02:45:30.903Z,1011.45
2016-05-06T02:46:30.907Z,1011.42
2016-05-06T02:47:30.909Z,1011.45
2016-05-06T02:48:30.911Z,1011.47
2016-05-06T02:49:30.898Z,1011.39
2016-05-06T02:50:30.902Z,1011.38
2016-05-06T02:51:30.904Z,1011.4
2016-05-06T02:52:30.906Z,1011.33
2016-05-06T02:53:30.910Z,1011.35
2016-05-06T02:54:30.895Z,1011.31
2016-05-06T02:55:31.102Z,1011.33
2016-05-06T02:56:30.901Z,1011.38
2016-05-06T02:57:30.904Z,1011.35
2016-05-06T02:58:30.907Z,1011.29
2016-05-06T02:59:30.895Z,1011.26
2016-05-06T03:00:30.897Z,1011.33
2016-05-06T03:01:30.899Z,1011.32
2016-05-06T03:02:30.903Z,1011.28
2016-05-06T03:03:30.889Z,1011.31
2016-05-06T03:04:30.892Z,1011.32
2016-05-06T03:05:30.894Z,1011.28
2016-05-06T03:06:30.897Z,1011.3
2016-05-06T03:07:30.900Z,1011.34
2016-05-06T03:08:30.886Z,1011.27
2016-05-06T03:09:30.889Z,1011.3
2016-05-06T03:10:30.892Z,1011.23
2016-05-06T03:11:30.895Z,1011.29
2016-05-06T03:12:30.897Z,1011.28
2016-05-06T03:13:30.900Z,1011.21
2016-05-06T03:14:30.887Z,1011.16
2016-05-06T03:15:30.891Z,1011.16
2016-05-06T03:16:30.893Z,1011.17
2016-05-06T03:17:30.896Z,1011.12
2016-05-06T03:18:30.882Z,1011.15
2016-05-06T03:19:30.885Z,1011.13
2016-05-06T03:20:30.888Z,1011.09
2016-05-06T03:21:30.890Z,1011.09
2016-05-06T03:22:30.878Z,1011.08
2016-05-06T03:23:30.881Z,1011.08
2016-05-06T03:24:30.884Z,1011.01
2016-05-06T03:25:31.292Z,1011.03
2016-05-06T03:26:30.889Z,1011.02
2016-05-06T03:27:30.876Z,1010.99
2016-05-06T03:28:30.878Z,1011.02
2016-05-06T03:29:30.881Z,1010.96
2016-05-06T03:30:30.884Z,1010.95
2016-05-06T03:31:30.886Z,1010.98
2016-05-06T03:32:30.873Z,1010.93
2016-05-06T03:33:30.876Z,1010.97
2016-05-06T03:34:30.878Z,1010.95
2016-05-06T03:35:30.881Z,1010.94
2016-05-06T03:36:30.869Z,1010.9
2016-05-06T03:37:30.872Z,1010.93
2016-05-06T03:38:30.874Z,1010.92
2016-05-06T03:39:30.877Z,1010.91
2016-05-06T03:40:30.864Z,1010.83
2016-05-06T03:41:30.877Z,1010.89
2016-05-06T03:42:30.877Z,1010.85
2016-05-06T03:43:30.946Z,1010.87
2016-05-06T03:44:30.854Z,1010.82
2016-05-06T03:45:30.857Z,1010.86
2016-05-06T03:46:30.860Z,1010.84
2016-05-06T03:47:30.863Z,1010.83
2016-05-06T03:48:30.911Z,1010.81
2016-05-06T03:49:30.883Z,1010.85
2016-05-06T03:50:30.854Z,1010.87
2016-05-06T03:51:30.857Z,1010.83
2016-05-06T03:52:30.844Z,1010.81
2016-05-06T03:53:30.909Z,1010.78
2016-05-06T03:54:30.850Z,1010.79
2016-05-06T03:55:30.852Z,1010.73
2016-05-06T03:56:30.871Z,1010.78
2016-05-06T03:57:30.842Z,1010.77
2016-05-06T03:58:30.845Z,1010.75
2016-05-06T03:59:30.848Z,1010.72
2016-05-06T04:00:30.866Z,1010.72
2016-05-06T04:01:30.853Z,1010.72
2016-05-06T04:02:30.839Z,1010.71
2016-05-06T04:03:30.843Z,1010.75
2016-05-06T04:04:30.845Z,1010.77
2016-05-06T04:05:30.847Z,1010.78
2016-05-06T04:06:30.835Z,1010.67
2016-05-06T04:07:30.854Z,1010.7
2016-05-06T04:08:30.840Z,1010.72
2016-05-06T04:09:30.842Z,1010.67
2016-05-06T04:10:30.831Z,1010.68
2016-05-06T04:11:30.832Z,1010.65
2016-05-06T04:12:30.836Z,1010.65
2016-05-06T04:13:30.838Z,1010.65
2016-05-06T04:14:30.825Z,1010.67
2016-05-06T04:15:30.828Z,1010.6
2016-05-06T04:16:30.830Z,1010.66
2016-05-06T04:17:30.833Z,1010.65
2016-05-06T04:18:30.835Z,1010.65
2016-05-06T04:19:30.824Z,1010.62
2016-05-06T04:20:30.826Z,1010.65
2016-05-06T04:21:30.829Z,1010.65
2016-05-06T04:22:30.831Z,1010.61
2016-05-06T04:23:30.818Z,1010.59
2016-05-06T04:24:30.821Z,1010.57
2016-05-06T04:25:30.823Z,1010.57
2016-05-06T04:26:30.826Z,1010.55
2016-05-06T04:27:30.829Z,1010.6
2016-05-06T04:28:30.816Z,1010.57
2016-05-06T04:29:30.818Z,1010.56
2016-05-06T04:30:30.821Z,1010.59
2016-05-06T04:31:30.809Z,1010.64
2016-05-06T04:32:30.812Z,1010.65
2016-05-06T04:33:30.814Z,1010.64
2016-05-06T04:34:30.817Z,1010.68
2016-05-06T04:35:30.804Z,1010.63
2016-05-06T04:36:30.822Z,1010.62
2016-05-06T04:37:30.809Z,1010.68
2016-05-06T04:38:30.811Z,1010.67
2016-05-06T04:39:30.814Z,1010.8
2016-05-06T04:40:30.817Z,1010.85
2016-05-06T04:41:30.804Z,1010.88
2016-05-06T04:42:30.806Z,1010.99
2016-05-06T04:43:30.809Z,1011
2016-05-06T04:44:30.797Z,1010.96
2016-05-06T04:45:30.799Z,1011.02
2016-05-06T04:46:30.802Z,1011.03
2016-05-06T04:47:30.805Z,1011.07
2016-05-06T04:48:30.808Z,1011.07
2016-05-06T04:49:30.794Z,1011.01
2016-05-06T04:50:30.797Z,1011.03
2016-05-06T04:51:30.799Z,1010.94
2016-05-06T04:52:30.802Z,1010.87
2016-05-06T04:53:30.805Z,1010.76
2016-05-06T04:54:30.793Z,1010.71
2016-05-06T04:55:30.795Z,1010.87
2016-05-06T04:56:30.798Z,1010.95
2016-05-06T04:57:30.801Z,1011.02
2016-05-06T04:58:30.803Z,1011.05
2016-05-06T04:59:30.790Z,1011.03
2016-05-06T05:00:30.792Z,1010.97
2016-05-06T05:01:30.796Z,1010.88
2016-05-06T05:02:30.798Z,1010.97
2016-05-06T05:03:30.800Z,1010.99
2016-05-06T05:04:30.804Z,1011.01
2016-05-06T05:05:30.790Z,1011.01
2016-05-06T05:06:30.793Z,1011.1
2016-05-06T05:07:30.842Z,1011.06
2016-05-06T05:08:30.799Z,1011.08
2016-05-06T05:09:30.801Z,1011.09
2016-05-06T05:10:30.827Z,1011.09
2016-05-06T05:11:30.876Z,1011.05
2016-05-06T05:12:30.911Z,1011.06
2016-05-06T05:13:30.976Z,1011.04
2016-05-06T05:14:31.011Z,1011.12
2016-05-06T05:15:31.046Z,1011.17
2016-05-06T05:16:31.066Z,1011.15
2016-05-06T05:17:31.086Z,1011.09
2016-05-06T05:18:31.105Z,1011.06
2016-05-06T05:19:31.124Z,1011.12
2016-05-06T05:20:31.139Z,1011.24
2016-05-06T05:21:31.148Z,1011.21
2016-05-06T05:22:31.157Z,1011.28
2016-05-06T05:23:31.165Z,1011.31
2016-05-06T05:24:31.175Z,1011.27
2016-05-06T05:25:31.181Z,1011.31
2016-05-06T05:26:31.171Z,1011.42
2016-05-06T05:27:31.175Z,1011.39
2016-05-06T05:28:31.181Z,1011.41
2016-05-06T05:29:31.185Z,1011.48
2016-05-06T05:30:31.189Z,1011.53
2016-05-06T05:31:31.193Z,1011.48
2016-05-06T05:32:31.196Z,1011.47
2016-05-06T05:33:31.200Z,1011.53
2016-05-06T05:34:31.203Z,1011.54
2016-05-06T05:35:31.207Z,1011.58
2016-05-06T05:36:31.209Z,1011.67
2016-05-06T05:37:31.213Z,1011.71
2016-05-06T05:38:31.216Z,1011.69
2016-05-06T05:39:31.219Z,1011.69
2016-05-06T05:40:31.222Z,1011.72
2016-05-06T05:41:31.225Z,1011.67
2016-05-06T05:42:31.211Z,1011.69
2016-05-06T05:43:31.246Z,1011.64
2016-05-06T05:44:31.217Z,1011.62
2016-05-06T05:45:31.235Z,1011.6
2016-05-06T05:46:31.222Z,1011.59
2016-05-06T05:47:31.241Z,1011.63
2016-05-06T05:48:31.228Z,1011.63
2016-05-06T05:49:31.230Z,1011.42
2016-05-06T05:50:31.233Z,1011.32
2016-05-06T05:51:31.235Z,1011.4
2016-05-06T05:52:31.238Z,1011.37
2016-05-06T05:53:31.241Z,1011.37
2016-05-06T05:54:31.244Z,1011.46
2016-05-06T05:55:31.246Z,1011.58
2016-05-06T05:56:31.249Z,1011.63
2016-05-06T05:57:31.252Z,1011.55
2016-05-06T05:58:31.254Z,1011.61
2016-05-06T05:59:31.257Z,1011.65
2016-05-06T06:00:31.260Z,1011.69
2016-05-06T06:01:31.262Z,1011.65
2016-05-06T06:02:31.265Z,1011.63
2016-05-06T06:03:31.268Z,1011.71
2016-05-06T06:04:31.270Z,1011.7
2016-05-06T06:05:31.273Z,1011.71
2016-05-06T06:06:31.276Z,1011.73
2016-05-06T06:07:31.264Z,1011.75
2016-05-06T06:08:31.266Z,1011.75
2016-05-06T06:09:31.284Z,1011.78
2016-05-06T06:10:31.286Z,1011.78
2016-05-06T06:11:31.274Z,1011.8
2016-05-06T06:12:31.292Z,1011.72
2016-05-06T06:13:31.295Z,1011.81
2016-05-06T06:14:31.314Z,1011.83
2016-05-06T06:15:31.300Z,1011.93
2016-05-06T06:16:31.302Z,1011.92
2016-05-06T06:17:31.306Z,1011.94
2016-05-06T06:18:31.308Z,1011.98
2016-05-06T06:19:31.311Z,1012.06
2016-05-06T06:20:31.314Z,1012.01
2016-05-06T06:21:31.316Z,1011.86
2016-05-06T06:22:31.319Z,1011.94
2016-05-06T06:23:31.337Z,1011.78
2016-05-06T06:24:31.325Z,1011.86
2016-05-06T06:25:31.327Z,1011.86
2016-05-06T06:26:31.346Z,1011.89
2016-05-06T06:27:31.348Z,1011.9
2016-05-06T06:28:31.351Z,1011.81
2016-05-06T06:29:31.369Z,1011.75
2016-05-06T06:30:31.357Z,1011.77
2016-05-06T06:31:31.359Z,1011.77
2016-05-06T06:32:31.361Z,1011.77
2016-05-06T06:33:31.365Z,1011.69
2016-05-06T06:34:31.367Z,1011.66
2016-05-06T06:35:31.369Z,1011.62
2016-05-06T06:36:31.389Z,1011.6
2016-05-06T06:37:31.391Z,1011.61
2016-05-06T06:38:31.394Z,1011.6
2016-05-06T06:39:31.397Z,1011.61
2016-05-06T06:40:31.399Z,1011.58
2016-05-06T06:41:31.417Z,1011.55
2016-05-06T06:42:31.419Z,1011.52
2016-05-06T06:43:31.422Z,1011.49
2016-05-06T06:44:31.425Z,1011.53
2016-05-06T06:45:31.428Z,1011.52
2016-05-06T06:46:31.431Z,1011.51
2016-05-06T06:47:31.449Z,1011.41
2016-05-06T06:48:31.452Z,1011.44
2016-05-06T06:49:31.454Z,1011.33
2016-05-06T06:50:31.457Z,1011.27
2016-05-06T06:51:31.460Z,1011.2
2016-05-06T06:52:31.463Z,1011.26
2016-05-06T06:53:31.481Z,1011.12
2016-05-06T06:54:31.484Z,1011.12
2016-05-06T06:55:31.486Z,1011.13
2016-05-06T06:56:31.489Z,1011.05
2016-05-06T06:57:31.492Z,1011.06
2016-05-06T06:58:31.509Z,1011.04
2016-05-06T06:59:31.513Z,1010.95
2016-05-06T07:00:31.515Z,1010.92
2016-05-06T07:01:31.518Z,1010.86
2016-05-06T07:02:31.537Z,1010.86
2016-05-06T07:03:31.539Z,1010.82
2016-05-06T07:04:31.541Z,1010.85
2016-05-06T07:05:31.544Z,1010.77
2016-05-06T07:06:31.547Z,1010.74
2016-05-06T07:07:31.565Z,1010.74
2016-05-06T07:08:31.567Z,1010.69
2016-05-06T07:09:31.571Z,1010.64
2016-05-06T07:10:31.589Z,1010.58
2016-05-06T07:11:31.591Z,1010.62
2016-05-06T07:12:31.594Z,1010.58
2016-05-06T07:13:31.597Z,1010.58
2016-05-06T07:14:31.599Z,1010.5
2016-05-06T07:15:31.618Z,1010.47
2016-05-06T07:16:31.621Z,1010.43
2016-05-06T07:17:31.624Z,1010.44
2016-05-06T07:18:31.627Z,1010.38
2016-05-06T07:19:31.644Z,1010.42
2016-05-06T07:20:31.647Z,1010.3
2016-05-06T07:21:31.649Z,1010.02
2016-05-06T07:22:31.668Z,1009.65
2016-05-06T07:23:31.676Z,1009.51
2016-05-06T07:24:31.678Z,1009.55
2016-05-06T07:25:31.681Z,1009.48
2016-05-06T07:26:31.699Z,1009.41
2016-05-06T07:27:31.702Z,1009.4
2016-05-06T07:28:31.704Z,1009.38
2016-05-06T07:29:31.707Z,1009.39
2016-05-06T07:30:31.710Z,1009.35
2016-05-06T07:31:31.729Z,1009.34
2016-05-06T07:32:31.732Z,1009.38
2016-05-06T07:33:31.734Z,1009.3
2016-05-06T07:34:31.736Z,1009.38
2016-05-06T07:35:31.755Z,1009.36
2016-05-06T07:36:31.758Z,1009.31
2016-05-06T07:37:31.760Z,1009.31
2016-05-06T07:38:31.763Z,1009.34
2016-05-06T07:39:31.766Z,1009.31
2016-05-06T07:40:31.766Z,1009.3
2016-05-06T07:41:32.146Z,1009.28
2016-05-06T07:42:31.786Z,1009.32
2016-05-06T07:43:31.789Z,1009.3
2016-05-06T07:44:31.792Z,1009.31
2016-05-06T07:45:31.794Z,1009.33
2016-05-06T07:46:31.797Z,1009.3
2016-05-06T07:47:31.800Z,1009.25
2016-05-06T07:48:31.818Z,1009.3
2016-05-06T07:49:31.822Z,1009.2
2016-05-06T07:50:31.824Z,1009.25
2016-05-06T07:51:31.826Z,1009.22
2016-05-06T07:52:31.829Z,1009.25
2016-05-06T07:53:31.832Z,1009.24
2016-05-06T07:54:31.850Z,1009.26
2016-05-06T07:55:31.853Z,1009.28
2016-05-06T07:56:31.856Z,1009.26
2016-05-06T07:57:31.859Z,1009.23
2016-05-06T07:58:31.861Z,1009.24
2016-05-06T07:59:31.865Z,1009.21
2016-05-06T08:00:31.867Z,1009.28
2016-05-06T08:01:31.869Z,1009.2
2016-05-06T08:02:31.872Z,1009.2
2016-05-06T08:03:31.890Z,1009.24
2016-05-06T08:04:31.892Z,1009.19
2016-05-06T08:05:31.895Z,1009.19
2016-05-06T08:06:31.898Z,1009.17
2016-05-06T08:07:31.901Z,1009.15
2016-05-06T08:08:31.903Z,1009.15
2016-05-06T08:09:31.906Z,1009.13
2016-05-06T08:10:31.909Z,1009.14
2016-05-06T08:11:31.911Z,1009.12
2016-05-06T08:12:31.914Z,1009.14
2016-05-06T08:13:31.916Z,1009.14
2016-05-06T08:14:31.920Z,1009.16
2016-05-06T08:15:31.922Z,1009.13
2016-05-06T08:16:31.925Z,1009.11
2016-05-06T08:17:31.927Z,1009.1
2016-05-06T08:18:31.930Z,1009.14
2016-05-06T08:19:31.933Z,1009.12
2016-05-06T08:20:31.935Z,1009.1
2016-05-06T08:21:31.938Z,1009.04
2016-05-06T08:22:31.941Z,1009.07
2016-05-06T08:23:31.944Z,1009.12
2016-05-06T08:24:31.946Z,1009.11
2016-05-06T08:25:31.965Z,1009.11
2016-05-06T08:26:32.155Z,1009.06
2016-05-06T08:27:31.954Z,1009.08
2016-05-06T08:28:31.957Z,1009.12
2016-05-06T08:29:31.960Z,1009.09
2016-05-06T08:30:31.962Z,1009.14
2016-05-06T08:31:31.965Z,1009.12
2016-05-06T08:32:31.984Z,1009.11
2016-05-06T08:33:31.987Z,1009.06
2016-05-06T08:34:31.989Z,1009.08
2016-05-06T08:35:31.992Z,1009.14
2016-05-06T08:36:31.995Z,1009.14
2016-05-06T08:37:31.997Z,1009.05
2016-05-06T08:38:32.000Z,1009.07
2016-05-06T08:39:32.002Z,1009.07
2016-05-06T08:40:32.006Z,1009.08
2016-05-06T08:41:32.148Z,1009.04
2016-05-06T08:42:32.011Z,1009.02
2016-05-06T08:43:32.013Z,1008.97
2016-05-06T08:44:32.016Z,1009.04
2016-05-06T08:45:32.034Z,1008.97
2016-05-06T08:46:32.036Z,1009.03
2016-05-06T08:47:32.024Z,1008.93
2016-05-06T08:48:32.042Z,1008.97
2016-05-06T08:49:32.044Z,1008.99
2016-05-06T08:50:32.047Z,1008.95
2016-05-06T08:51:32.066Z,1008.95
2016-05-06T08:52:32.052Z,1008.95
2016-05-06T08:53:32.056Z,1008.95
2016-05-06T08:54:32.058Z,1008.89
2016-05-06T08:55:32.077Z,1008.91
2016-05-06T08:56:32.079Z,1008.94
2016-05-06T08:57:32.082Z,1008.91
2016-05-06T08:58:32.085Z,1008.87
2016-05-06T08:59:32.088Z,1008.88
2016-05-06T09:00:32.090Z,1008.83
2016-05-06T09:01:32.109Z,1008.83
2016-05-06T09:02:32.111Z,1008.82
2016-05-06T09:03:32.115Z,1008.83
2016-05-06T09:04:32.117Z,1008.77
2016-05-06T09:05:32.120Z,1008.81
2016-05-06T09:06:32.122Z,1008.86
2016-05-06T09:07:32.140Z,1008.83
2016-05-06T09:08:32.142Z,1008.81
2016-05-06T09:09:32.145Z,1008.82
2016-05-06T09:10:32.148Z,1008.76
2016-05-06T09:11:32.495Z,1008.79
2016-05-06T09:12:32.170Z,1008.79
2016-05-06T09:13:32.172Z,1008.77
2016-05-06T09:14:32.175Z,1008.78
2016-05-06T09:15:32.177Z,1008.72
2016-05-06T09:16:32.196Z,1008.74
2016-05-06T09:17:32.199Z,1008.79
2016-05-06T09:18:32.202Z,1008.73
2016-05-06T09:19:32.219Z,1008.76
2016-05-06T09:20:32.207Z,1008.74
2016-05-06T09:21:32.224Z,1008.71
2016-05-06T09:22:32.228Z,1008.76
2016-05-06T09:23:32.230Z,1008.76
2016-05-06T09:24:32.232Z,1008.73
2016-05-06T09:25:32.236Z,1008.75
2016-05-06T09:26:32.255Z,1008.73
2016-05-06T09:27:32.257Z,1008.71
2016-05-06T09:28:32.260Z,1008.7
2016-05-06T09:29:32.262Z,1008.68
2016-05-06T09:30:32.280Z,1008.65
2016-05-06T09:31:32.282Z,1008.64
2016-05-06T09:32:32.285Z,1008.67
2016-05-06T09:33:32.288Z,1008.66
2016-05-06T09:34:32.307Z,1008.7
2016-05-06T09:35:32.310Z,1008.72
2016-05-06T09:36:32.312Z,1008.69
2016-05-06T09:37:32.315Z,1008.65
2016-05-06T09:38:32.318Z,1008.65
2016-05-06T09:39:32.336Z,1008.66
2016-05-06T09:40:32.339Z,1008.64
2016-05-06T09:41:32.357Z,1008.67
2016-05-06T09:42:32.359Z,1008.62
2016-05-06T09:43:32.347Z,1008.58
2016-05-06T09:44:32.365Z,1008.58
2016-05-06T09:45:32.368Z,1008.62
2016-05-06T09:46:32.370Z,1008.6
2016-05-06T09:47:32.389Z,1008.58
2016-05-06T09:48:32.392Z,1008.57
2016-05-06T09:49:32.394Z,1008.52
2016-05-06T09:50:32.396Z,1008.49
2016-05-06T09:51:32.400Z,1008.49
2016-05-06T09:52:32.402Z,1008.49
2016-05-06T09:53:32.405Z,1008.44
2016-05-06T09:54:32.439Z,1008.46
2016-05-06T09:55:32.441Z,1008.44
2016-05-06T09:56:32.429Z,1008.41
2016-05-06T09:57:32.432Z,1008.39
2016-05-06T09:58:32.449Z,1008.37
2016-05-06T09:59:32.452Z,1008.41
2016-05-06T10:00:32.454Z,1008.35
2016-05-06T10:01:32.458Z,1008.36
2016-05-06T10:02:32.460Z,1008.32
2016-05-06T10:03:32.478Z,1008.32
2016-05-06T10:04:32.497Z,1008.36
2016-05-06T10:05:32.499Z,1008.36
2016-05-06T10:06:32.486Z,1008.38
2016-05-06T10:07:32.505Z,1008.34
2016-05-06T10:08:32.507Z,1008.37
2016-05-06T10:09:32.510Z,1008.4
2016-05-06T10:10:32.529Z,1008.38
2016-05-06T10:11:32.531Z,1008.32
2016-05-06T10:12:32.534Z,1008.33
2016-05-06T10:13:32.537Z,1008.36
2016-05-06T10:14:32.571Z,1008.37
2016-05-06T10:15:32.542Z,1008.31
2016-05-06T10:16:32.561Z,1008.26
2016-05-06T10:17:32.563Z,1008.27
2016-05-06T10:18:32.581Z,1008.25
2016-05-06T10:19:32.569Z,1008.24
2016-05-06T10:20:32.586Z,1008.3
2016-05-06T10:21:32.590Z,1008.25
2016-05-06T10:22:32.592Z,1008.27
2016-05-06T10:23:32.595Z,1008.16
2016-05-06T10:24:32.613Z,1008.23
2016-05-06T10:25:32.615Z,1008.18
2016-05-06T10:26:32.728Z,1008.17
2016-05-06T10:27:32.621Z,1008.13
2016-05-06T10:28:32.640Z,1008.13
2016-05-06T10:29:32.643Z,1008.09
2016-05-06T10:30:32.645Z,1008.05
2016-05-06T10:31:32.648Z,1008.13
2016-05-06T10:32:32.651Z,1008.1
2016-05-06T10:33:32.669Z,1008.07
2016-05-06T10:34:32.687Z,1008.02
2016-05-06T10:35:32.674Z,1008.03
2016-05-06T10:36:32.676Z,1008.02
2016-05-06T10:37:32.695Z,1007.99
2016-05-06T10:38:32.698Z,1008
2016-05-06T10:39:32.700Z,1007.93
2016-05-06T10:40:32.703Z,1007.94
2016-05-06T10:41:32.815Z,1007.97
2016-05-06T10:42:32.724Z,1007.94
2016-05-06T10:43:32.726Z,1007.94
2016-05-06T10:44:32.729Z,1007.88
2016-05-06T10:45:32.748Z,1007.84
2016-05-06T10:46:32.750Z,1007.87
2016-05-06T10:47:32.753Z,1007.88
2016-05-06T10:48:32.756Z,1007.81
2016-05-06T10:49:32.758Z,1007.77
2016-05-06T10:50:32.778Z,1007.78
2016-05-06T10:51:32.780Z,1007.76
2016-05-06T10:52:32.782Z,1007.75
2016-05-06T10:53:32.816Z,1007.73
2016-05-06T10:54:32.803Z,1007.75
2016-05-06T10:55:32.806Z,1007.8
2016-05-06T10:56:32.809Z,1007.71
2016-05-06T10:57:32.811Z,1007.72
2016-05-06T10:58:32.814Z,1007.69
2016-05-06T10:59:32.832Z,1007.67
2016-05-06T11:00:32.836Z,1007.71
2016-05-06T11:01:32.837Z,1007.65
2016-05-06T11:02:32.841Z,1007.69
2016-05-06T11:03:32.859Z,1007.64
2016-05-06T11:04:32.862Z,1007.65
2016-05-06T11:05:32.864Z,1007.62
2016-05-06T11:06:32.867Z,1007.64
2016-05-06T11:07:32.901Z,1007.67
2016-05-06T11:08:32.888Z,1007.64
2016-05-06T11:09:32.890Z,1007.65
2016-05-06T11:10:32.893Z,1007.61
2016-05-06T11:11:32.912Z,1007.55
2016-05-06T11:12:32.915Z,1007.61
2016-05-06T11:13:32.917Z,1007.58
2016-05-06T11:14:32.920Z,1007.54
2016-05-06T11:15:32.938Z,1007.55
2016-05-06T11:16:32.940Z,1007.58
2016-05-06T11:17:32.943Z,1007.56
2016-05-06T11:18:32.946Z,1007.59
2016-05-06T11:19:32.948Z,1007.61
2016-05-06T11:20:32.967Z,1007.5
2016-05-06T11:21:32.970Z,1007.55
2016-05-06T11:22:32.989Z,1007.52
2016-05-06T11:23:32.975Z,1007.6
2016-05-06T11:24:32.993Z,1007.54
2016-05-06T11:25:32.997Z,1007.47
2016-05-06T11:26:32.999Z,1007.53
2016-05-06T11:27:33.002Z,1007.48
2016-05-06T11:28:33.005Z,1007.47
2016-05-06T11:29:33.022Z,1007.45
2016-05-06T11:30:33.025Z,1007.42
2016-05-06T11:31:33.028Z,1007.45
2016-05-06T11:32:33.046Z,1007.44
2016-05-06T11:33:33.049Z,1007.4
2016-05-06T11:34:33.052Z,1007.46
2016-05-06T11:35:33.054Z,1007.5
2016-05-06T11:36:33.074Z,1007.51
2016-05-06T11:37:33.076Z,1007.42
2016-05-06T11:38:33.078Z,1007.46
2016-05-06T11:39:33.082Z,1007.39
2016-05-06T11:40:33.099Z,1007.37
2016-05-06T11:41:33.102Z,1007.37
2016-05-06T11:42:33.104Z,1007.37
2016-05-06T11:43:33.107Z,1007.25
2016-05-06T11:44:33.126Z,1007.28
2016-05-06T11:45:33.128Z,1007.33
2016-05-06T11:46:33.131Z,1007.29
2016-05-06T11:47:33.134Z,1007.27
2016-05-06T11:48:33.151Z,1007.33
2016-05-06T11:49:33.154Z,1007.31
2016-05-06T11:50:33.157Z,1007.32
2016-05-06T11:51:33.160Z,1007.29
2016-05-06T11:52:33.178Z,1007.26
2016-05-06T11:53:33.181Z,1007.23
2016-05-06T11:54:33.184Z,1007.21
2016-05-06T11:55:33.186Z,1007.21
2016-05-06T11:56:33.189Z,1007.2
2016-05-06T11:57:33.207Z,1007.16
2016-05-06T11:58:33.211Z,1007.16
2016-05-06T11:59:33.213Z,1007.19
2016-05-06T12:00:33.230Z,1007.15
2016-05-06T12:01:33.234Z,1007.21
2016-05-06T12:02:33.236Z,1007.19
2016-05-06T12:03:33.239Z,1007.11
2016-05-06T12:04:33.257Z,1007.06
2016-05-06T12:05:33.261Z,1007.11
2016-05-06T12:06:33.263Z,1007.09
2016-05-06T12:07:33.265Z,1007.1